Beach Hampton, New York
Current Conditions -  °F | °C
As of 5:56 PM on Thursday 23 Oct 2014 (Local Time) from KGON Reporting Station
Overcast Overcast  
Wind Chill: 55°   Ceiling: 2300
Heat Index: 55°   Visibility: 10mi
Dew Point: 49°   Wind: 21mph
Humidity: 80%   Direction: 360°N
Pressure: 29.58"   Gusts: 32mph
Location:  40.9764°N, 72.1316°W
Report Text: KGON 232156Z 36018G28KT 10SM OVC023 13/09 A2958 RMK AO2 PK WND 36032/2142 SLP017 T01280094
Loading
Personal Weather Stations






























Interactive Weather Map
Tropical Storm Tracking
New forecast layout! Learn more

10-Day Weather Forecast

Advertisements
Track Severe Weather on mobile